sensor_id;sensor_type;location;lat;lon;timestamp;pressure;altitude;pressure_sealevel;temperature;humidity
56825;BME280;42705;50.326;18.772;2023-10-08T00:01:43;98219.76;;;15.58;65.74
56825;BME280;42705;50.326;18.772;2023-10-08T00:07:05;98215.52;;;15.39;66.10
56825;BME280;42705;50.326;18.772;2023-10-08T00:12:30;98211.36;;;15.27;66.75
56825;BME280;42705;50.326;18.772;2023-10-08T00:17:51;98204.98;;;15.19;67.42
56825;BME280;42705;50.326;18.772;2023-10-08T00:23:16;98199.43;;;15.15;67.92
56825;BME280;42705;50.326;18.772;2023-10-08T00:28:38;98201.81;;;15.14;68.31
56825;BME280;42705;50.326;18.772;2023-10-08T00:34:04;98200.98;;;15.14;68.56
56825;BME280;42705;50.326;18.772;2023-10-08T00:39:27;98202.14;;;15.10;68.70
56825;BME280;42705;50.326;18.772;2023-10-08T00:44:55;98201.27;;;15.04;68.95
56825;BME280;42705;50.326;18.772;2023-10-08T00:50:17;98199.88;;;14.99;69.28
56825;BME280;42705;50.326;18.772;2023-10-08T00:55:42;98203.77;;;14.97;69.41
56825;BME280;42705;50.326;18.772;2023-10-08T01:01:12;98199.17;;;14.89;69.75
56825;BME280;42705;50.326;18.772;2023-10-08T01:06:38;98202.46;;;14.84;69.80
56825;BME280;42705;50.326;18.772;2023-10-08T01:12:23;98195.94;;;14.79;69.86
56825;BME280;42705;50.326;18.772;2023-10-08T01:17:50;98200.17;;;14.66;69.87
56825;BME280;42705;50.326;18.772;2023-10-08T01:23:22;98206.48;;;14.60;70.06
56825;BME280;42705;50.326;18.772;2023-10-08T01:28:48;98210.52;;;14.30;69.47
56825;BME280;42705;50.326;18.772;2023-10-08T01:34:09;98225.65;;;13.71;68.97
56825;BME280;42705;50.326;18.772;2023-10-08T01:39:37;98238.23;;;13.19;69.17
56825;BME280;42705;50.326;18.772;2023-10-08T01:45:01;98263.38;;;12.88;69.51
56825;BME280;42705;50.326;18.772;2023-10-08T01:50:23;98248.28;;;12.57;69.60
56825;BME280;42705;50.326;18.772;2023-10-08T01:55:49;98241.65;;;12.24;69.79
56825;BME280;42705;50.326;18.772;2023-10-08T02:01:10;98244.45;;;11.98;70.22
56825;BME280;42705;50.326;18.772;2023-10-08T02:06:34;98262.94;;;11.86;70.38
56825;BME280;42705;50.326;18.772;2023-10-08T02:11:55;98245.30;;;11.80;70.90
56825;BME280;42705;50.326;18.772;2023-10-08T02:17:18;98265.94;;;11.79;70.98
56825;BME280;42705;50.326;18.772;2023-10-08T02:22:40;98269.64;;;11.78;70.93
56825;BME280;42705;50.326;18.772;2023-10-08T02:28:03;98272.17;;;11.74;71.09
56825;BME280;42705;50.326;18.772;2023-10-08T02:33:26;98264.62;;;11.67;71.11
56825;BME280;42705;50.326;18.772;2023-10-08T02:38:48;98252.84;;;11.66;71.05
56825;BME280;42705;50.326;18.772;2023-10-08T02:44:11;98270.37;;;11.67;71.37
56825;BME280;42705;50.326;18.772;2023-10-08T02:49:35;98295.82;;;11.66;71.31
56825;BME280;42705;50.326;18.772;2023-10-08T02:54:58;98303.36;;;11.64;71.18
56825;BME280;42705;50.326;18.772;2023-10-08T03:00:22;98319.42;;;11.68;71.46
56825;BME280;42705;50.326;18.772;2023-10-08T03:05:52;98319.98;;;11.66;71.36
56825;BME280;42705;50.326;18.772;2023-10-08T03:11:13;98317.45;;;11.64;71.49
56825;BME280;42705;50.326;18.772;2023-10-08T03:16:38;98330.60;;;11.65;71.33
56825;BME280;42705;50.326;18.772;2023-10-08T03:22:02;98326.39;;;11.63;71.36
56825;BME280;42705;50.326;18.772;2023-10-08T03:27:26;98347.31;;;11.59;71.27
56825;BME280;42705;50.326;18.772;2023-10-08T03:32:47;98391.73;;;11.51;71.12
56825;BME280;42705;50.326;18.772;2023-10-08T03:38:19;98389.95;;;11.38;70.94
56825;BME280;42705;50.326;18.772;2023-10-08T03:43:49;98386.14;;;11.17;71.09
56825;BME280;42705;50.326;18.772;2023-10-08T03:49:14;98418.51;;;11.00;71.27
56825;BME280;42705;50.326;18.772;2023-10-08T03:54:42;98428.70;;;10.92;71.17
56825;BME280;42705;50.326;18.772;2023-10-08T04:00:13;98433.84;;;10.86;71.49
56825;BME280;42705;50.326;18.772;2023-10-08T04:05:38;98437.94;;;10.73;71.58
56825;BME280;42705;50.326;18.772;2023-10-08T04:11:18;98459.08;;;10.67;71.50
56825;BME280;42705;50.326;18.772;2023-10-08T04:16:53;98484.91;;;10.58;71.61
56825;BME280;42705;50.326;18.772;2023-10-08T04:22:15;98482.13;;;10.50;71.92
56825;BME280;42705;50.326;18.772;2023-10-08T04:27:39;98485.14;;;10.46;71.94
56825;BME280;42705;50.326;18.772;2023-10-08T04:33:05;98501.84;;;10.46;72.21
56825;BME280;42705;50.326;18.772;2023-10-08T04:38:32;98499.48;;;10.48;71.93
56825;BME280;42705;50.326;18.772;2023-10-08T04:44:01;98516.45;;;10.49;72.10
56825;BME280;42705;50.326;18.772;2023-10-08T04:49:30;98548.10;;;10.47;72.02
56825;BME280;42705;50.326;18.772;2023-10-08T04:54:53;98563.91;;;10.35;71.92
56825;BME280;42705;50.326;18.772;2023-10-08T05:00:18;98584.74;;;10.30;71.88
56825;BME280;42705;50.326;18.772;2023-10-08T05:05:59;98571.16;;;10.32;72.53
56825;BME280;42705;50.326;18.772;2023-10-08T05:11:27;98567.10;;;10.34;72.50
56825;BME280;42705;50.326;18.772;2023-10-08T05:17:08;98549.08;;;10.43;72.65
56825;BME280;42705;50.326;18.772;2023-10-08T05:22:33;98571.81;;;10.47;72.71
56825;BME280;42705;50.326;18.772;2023-10-08T05:27:54;98610.59;;;10.42;72.54
56825;BME280;42705;50.326;18.772;2023-10-08T05:33:19;98612.60;;;10.43;72.47
56825;BME280;42705;50.326;18.772;2023-10-08T05:38:49;98619.23;;;10.46;72.78
56825;BME280;42705;50.326;18.772;2023-10-08T05:44:20;98636.73;;;10.45;72.69
56825;BME280;42705;50.326;18.772;2023-10-08T05:49:42;98641.42;;;10.47;72.53
56825;BME280;42705;50.326;18.772;2023-10-08T05:55:16;98637.82;;;10.53;72.61
56825;BME280;42705;50.326;18.772;2023-10-08T06:00:47;98652.39;;;10.54;72.45
56825;BME280;42705;50.326;18.772;2023-10-08T06:06:12;98665.38;;;10.59;72.37
56825;BME280;42705;50.326;18.772;2023-10-08T06:11:35;98680.02;;;10.64;72.46
56825;BME280;42705;50.326;18.772;2023-10-08T06:17:02;98690.76;;;10.62;72.17
56825;BME280;42705;50.326;18.772;2023-10-08T06:22:43;98702.77;;;10.69;72.03
56825;BME280;42705;50.326;18.772;2023-10-08T06:28:05;98701.59;;;10.73;71.85
56825;BME280;42705;50.326;18.772;2023-10-08T06:33:30;98709.15;;;10.74;71.70
56825;BME280;42705;50.326;18.772;2023-10-08T06:38:52;98723.60;;;10.75;71.61
56825;BME280;42705;50.326;18.772;2023-10-08T06:44:13;98741.45;;;10.76;71.57
56825;BME280;42705;50.326;18.772;2023-10-08T06:49:38;98741.47;;;10.72;71.38
56825;BME280;42705;50.326;18.772;2023-10-08T06:55:00;98749.69;;;10.70;71.52
56825;BME280;42705;50.326;18.772;2023-10-08T07:00:24;98760.71;;;10.71;71.29
56825;BME280;42705;50.326;18.772;2023-10-08T07:06:09;98774.61;;;10.64;71.62
56825;BME280;42705;50.326;18.772;2023-10-08T07:11:52;98784.55;;;10.56;71.25
56825;BME280;42705;50.326;18.772;2023-10-08T07:17:17;98791.89;;;10.50;71.26
56825;BME280;42705;50.326;18.772;2023-10-08T07:22:41;98803.55;;;10.49;71.35
56825;BME280;42705;50.326;18.772;2023-10-08T07:28:05;98817.46;;;10.51;71.31
56825;BME280;42705;50.326;18.772;2023-10-08T07:33:27;98818.20;;;10.51;71.34
56825;BME280;42705;50.326;18.772;2023-10-08T07:38:57;98819.71;;;10.56;71.00
56825;BME280;42705;50.326;18.772;2023-10-08T07:44:21;98830.16;;;10.68;70.76
56825;BME280;42705;50.326;18.772;2023-10-08T07:49:42;98837.95;;;10.80;70.74
56825;BME280;42705;50.326;18.772;2023-10-08T07:55:05;98850.53;;;10.98;70.63
56825;BME280;42705;50.326;18.772;2023-10-08T08:00:27;98864.05;;;11.20;70.36
56825;BME280;42705;50.326;18.772;2023-10-08T08:05:52;98889.50;;;11.37;70.07
56825;BME280;42705;50.326;18.772;2023-10-08T08:11:14;98893.33;;;11.37;69.91
56825;BME280;42705;50.326;18.772;2023-10-08T08:16:38;98899.94;;;11.37;69.33
56825;BME280;42705;50.326;18.772;2023-10-08T08:22:00;98895.39;;;11.45;69.11
56825;BME280;42705;50.326;18.772;2023-10-08T08:27:24;98891.23;;;11.53;68.55
56825;BME280;42705;50.326;18.772;2023-10-08T08:32:46;98895.02;;;11.56;67.95
56825;BME280;42705;50.326;18.772;2023-10-08T08:38:10;98893.66;;;11.55;67.53
56825;BME280;42705;50.326;18.772;2023-10-08T08:43:34;98910.21;;;11.68;67.01
56825;BME280;42705;50.326;18.772;2023-10-08T08:49:00;98910.98;;;11.96;66.44
56825;BME280;42705;50.326;18.772;2023-10-08T08:54:21;98922.71;;;12.11;65.36
56825;BME280;42705;50.326;18.772;2023-10-08T08:59:56;98936.61;;;12.22;64.26
56825;BME280;42705;50.326;18.772;2023-10-08T09:05:19;98943.73;;;12.31;62.21
56825;BME280;42705;50.326;18.772;2023-10-08T09:10:47;98948.58;;;12.26;60.50
56825;BME280;42705;50.326;18.772;2023-10-08T09:16:16;98953.27;;;12.26;59.13
56825;BME280;42705;50.326;18.772;2023-10-08T09:21:38;98963.38;;;12.21;59.15
56825;BME280;42705;50.326;18.772;2023-10-08T09:27:00;98980.05;;;12.02;59.36
56825;BME280;42705;50.326;18.772;2023-10-08T09:32:23;98987.02;;;11.80;59.47
56825;BME280;42705;50.326;18.772;2023-10-08T09:37:45;98980.73;;;11.70;58.32
56825;BME280;42705;50.326;18.772;2023-10-08T09:43:11;98991.92;;;11.68;56.50
56825;BME280;42705;50.326;18.772;2023-10-08T09:48:37;98987.80;;;11.80;55.88
56825;BME280;42705;50.326;18.772;2023-10-08T09:54:11;98981.70;;;11.93;55.30
56825;BME280;42705;50.326;18.772;2023-10-08T09:59:37;98986.16;;;12.11;54.91
56825;BME280;42705;50.326;18.772;2023-10-08T10:05:03;98994.15;;;12.23;54.34
56825;BME280;42705;50.326;18.772;2023-10-08T10:10:33;99008.55;;;12.25;53.14
56825;BME280;42705;50.326;18.772;2023-10-08T10:15:57;99014.29;;;12.19;51.48
56825;BME280;42705;50.326;18.772;2023-10-08T10:21:24;99024.08;;;12.23;50.69
56825;BME280;42705;50.326;18.772;2023-10-08T10:26:48;99029.92;;;12.33;50.27
56825;BME280;42705;50.326;18.772;2023-10-08T10:32:12;99037.41;;;12.29;49.93
56825;BME280;42705;50.326;18.772;2023-10-08T10:37:37;99040.45;;;12.44;49.61
56825;BME280;42705;50.326;18.772;2023-10-08T10:43:13;99049.86;;;12.61;48.57
56825;BME280;42705;50.326;18.772;2023-10-08T10:48:37;99053.05;;;12.56;47.74
56825;BME280;42705;50.326;18.772;2023-10-08T10:54:00;99046.70;;;12.61;47.59
56825;BME280;42705;50.326;18.772;2023-10-08T10:59:29;99048.90;;;12.69;47.22
56825;BME280;42705;50.326;18.772;2023-10-08T11:04:58;99058.66;;;12.86;46.55
56825;BME280;42705;50.326;18.772;2023-10-08T11:10:37;99073.21;;;12.84;45.43
56825;BME280;42705;50.326;18.772;2023-10-08T11:16:09;99064.22;;;12.76;44.41
56825;BME280;42705;50.326;18.772;2023-10-08T11:21:31;99067.29;;;12.83;44.11
56825;BME280;42705;50.326;18.772;2023-10-08T11:26:55;99063.10;;;12.89;43.72
56825;BME280;42705;50.326;18.772;2023-10-08T11:32:38;99067.06;;;12.92;43.31
56825;BME280;42705;50.326;18.772;2023-10-08T11:38:00;99068.54;;;13.00;43.16
56825;BME280;42705;50.326;18.772;2023-10-08T11:43:25;99057.60;;;13.09;42.97
56825;BME280;42705;50.326;18.772;2023-10-08T11:48:46;99062.73;;;13.16;42.87
56825;BME280;42705;50.326;18.772;2023-10-08T11:54:08;99073.95;;;13.30;42.34
56825;BME280;42705;50.326;18.772;2023-10-08T11:59:33;99072.36;;;13.43;41.34
56825;BME280;42705;50.326;18.772;2023-10-08T12:05:00;99074.39;;;13.78;40.68
56825;BME280;42705;50.326;18.772;2023-10-08T12:10:24;99078.14;;;15.38;39.92
56825;BME280;42705;50.326;18.772;2023-10-08T12:15:46;99083.17;;;21.36;35.34
56825;BME280;42705;50.326;18.772;2023-10-08T12:21:08;99076.48;;;26.59;30.75
56825;BME280;42705;50.326;18.772;2023-10-08T12:26:31;99076.39;;;30.75;27.80
56825;BME280;42705;50.326;18.772;2023-10-08T12:31:53;99078.09;;;34.49;24.83
56825;BME280;42705;50.326;18.772;2023-10-08T12:37:15;99073.01;;;37.28;21.95
56825;BME280;42705;50.326;18.772;2023-10-08T12:42:37;99073.27;;;38.97;19.97
56825;BME280;42705;50.326;18.772;2023-10-08T12:48:05;99070.48;;;40.04;18.86
56825;BME280;42705;50.326;18.772;2023-10-08T12:53:29;99074.96;;;41.46;17.55
56825;BME280;42705;50.326;18.772;2023-10-08T12:59:00;99071.23;;;42.64;16.12
56825;BME280;42705;50.326;18.772;2023-10-08T13:04:25;99078.69;;;43.53;15.23
56825;BME280;42705;50.326;18.772;2023-10-08T13:09:52;99078.55;;;44.06;14.35
56825;BME280;42705;50.326;18.772;2023-10-08T13:15:14;99083.75;;;44.66;13.38
56825;BME280;42705;50.326;18.772;2023-10-08T13:20:35;99083.41;;;43.13;13.00
56825;BME280;42705;50.326;18.772;2023-10-08T13:25:57;99080.15;;;41.55;13.18
56825;BME280;42705;50.326;18.772;2023-10-08T13:31:26;99089.41;;;42.37;12.52
56825;BME280;42705;50.326;18.772;2023-10-08T13:36:48;99103.11;;;43.23;12.06
56825;BME280;42705;50.326;18.772;2023-10-08T13:42:10;99101.98;;;43.98;11.49
56825;BME280;42705;50.326;18.772;2023-10-08T13:47:38;99104.02;;;44.36;11.19
56825;BME280;42705;50.326;18.772;2023-10-08T13:53:01;99104.17;;;44.54;10.94
56825;BME280;42705;50.326;18.772;2023-10-08T13:58:23;99101.35;;;44.10;10.49
56825;BME280;42705;50.326;18.772;2023-10-08T14:03:47;99110.51;;;43.50;10.50
56825;BME280;42705;50.326;18.772;2023-10-08T14:09:08;99117.73;;;42.86;10.35
56825;BME280;42705;50.326;18.772;2023-10-08T14:14:33;99113.61;;;42.50;10.35
56825;BME280;42705;50.326;18.772;2023-10-08T14:19:56;99117.96;;;41.67;10.31
56825;BME280;42705;50.326;18.772;2023-10-08T14:25:28;99121.10;;;40.64;10.38
56825;BME280;42705;50.326;18.772;2023-10-08T14:30:54;99125.85;;;38.47;11.16
56825;BME280;42705;50.326;18.772;2023-10-08T14:36:17;99126.10;;;37.81;11.38
56825;BME280;42705;50.326;18.772;2023-10-08T14:41:59;99131.48;;;37.37;11.63
56825;BME280;42705;50.326;18.772;2023-10-08T14:47:39;99149.69;;;34.24;12.80
56825;BME280;42705;50.326;18.772;2023-10-08T14:53:01;99162.25;;;30.13;14.20
56825;BME280;42705;50.326;18.772;2023-10-08T14:58:27;99164.17;;;28.81;14.98
56825;BME280;42705;50.326;18.772;2023-10-08T15:03:49;99163.42;;;29.43;15.11
56825;BME280;42705;50.326;18.772;2023-10-08T15:09:11;99166.55;;;29.89;15.28
56825;BME280;42705;50.326;18.772;2023-10-08T15:14:40;99172.89;;;29.71;15.48
56825;BME280;42705;50.326;18.772;2023-10-08T15:20:04;99181.83;;;28.84;16.12
56825;BME280;42705;50.326;18.772;2023-10-08T15:25:28;99203.38;;;26.15;17.39
56825;BME280;42705;50.326;18.772;2023-10-08T15:30:50;99218.58;;;23.37;18.72
56825;BME280;42705;50.326;18.772;2023-10-08T15:36:11;99232.61;;;21.22;20.28
56825;BME280;42705;50.326;18.772;2023-10-08T15:41:37;99229.76;;;19.98;21.55
56825;BME280;42705;50.326;18.772;2023-10-08T15:47:00;99216.27;;;19.26;22.59
56825;BME280;42705;50.326;18.772;2023-10-08T15:52:21;99223.75;;;19.07;23.30
56825;BME280;42705;50.326;18.772;2023-10-08T15:57:46;99237.56;;;18.53;24.04
56825;BME280;42705;50.326;18.772;2023-10-08T16:03:07;99232.36;;;17.46;25.24
56825;BME280;42705;50.326;18.772;2023-10-08T16:08:30;99239.73;;;16.45;26.26
56825;BME280;42705;50.326;18.772;2023-10-08T16:13:51;99248.86;;;15.53;27.65
56825;BME280;42705;50.326;18.772;2023-10-08T16:19:13;99251.67;;;14.79;28.52
56825;BME280;42705;50.326;18.772;2023-10-08T16:24:37;99269.57;;;14.11;29.55
56825;BME280;42705;50.326;18.772;2023-10-08T16:30:00;99281.18;;;13.45;30.64
56825;BME280;42705;50.326;18.772;2023-10-08T16:35:21;99289.60;;;12.89;31.65
56825;BME280;42705;50.326;18.772;2023-10-08T16:40:46;99300.86;;;12.43;32.52
56825;BME280;42705;50.326;18.772;2023-10-08T16:46:08;99312.77;;;12.01;33.38
56825;BME280;42705;50.326;18.772;2023-10-08T16:51:29;99315.88;;;11.67;34.43
56825;BME280;42705;50.326;18.772;2023-10-08T16:56:51;99329.65;;;11.33;34.96
56825;BME280;42705;50.326;18.772;2023-10-08T17:02:12;99338.79;;;11.05;35.86
56825;BME280;42705;50.326;18.772;2023-10-08T17:07:34;99344.37;;;10.81;36.08
56825;BME280;42705;50.326;18.772;2023-10-08T17:12:59;99344.92;;;10.60;36.84
56825;BME280;42705;50.326;18.772;2023-10-08T17:18:20;99349.59;;;10.42;37.68
56825;BME280;42705;50.326;18.772;2023-10-08T17:23:42;99356.94;;;10.27;37.96
56825;BME280;42705;50.326;18.772;2023-10-08T17:29:04;99363.38;;;10.11;38.34
56825;BME280;42705;50.326;18.772;2023-10-08T17:34:29;99365.36;;;9.92;38.86
56825;BME280;42705;50.326;18.772;2023-10-08T17:39:52;99376.05;;;9.74;39.05
56825;BME280;42705;50.326;18.772;2023-10-08T17:45:14;99375.69;;;9.59;39.50
56825;BME280;42705;50.326;18.772;2023-10-08T17:50:35;99377.38;;;9.48;40.04
56825;BME280;42705;50.326;18.772;2023-10-08T17:56:00;99382.98;;;9.43;40.11
56825;BME280;42705;50.326;18.772;2023-10-08T18:01:22;99391.15;;;9.34;40.51
56825;BME280;42705;50.326;18.772;2023-10-08T18:06:43;99396.54;;;9.23;40.90
56825;BME280;42705;50.326;18.772;2023-10-08T18:12:05;99395.95;;;9.12;41.29
56825;BME280;42705;50.326;18.772;2023-10-08T18:17:31;99397.55;;;9.06;41.50
56825;BME280;42705;50.326;18.772;2023-10-08T18:22:56;99401.81;;;9.03;41.51
56825;BME280;42705;50.326;18.772;2023-10-08T18:28:18;99403.38;;;9.00;41.57
56825;BME280;42705;50.326;18.772;2023-10-08T18:33:40;99411.60;;;8.90;42.06
56825;BME280;42705;50.326;18.772;2023-10-08T18:39:04;99415.70;;;8.73;42.73
56825;BME280;42705;50.326;18.772;2023-10-08T18:44:34;99419.37;;;8.65;42.91
56825;BME280;42705;50.326;18.772;2023-10-08T18:49:56;99418.55;;;8.61;43.23
56825;BME280;42705;50.326;18.772;2023-10-08T18:55:21;99418.08;;;8.58;43.21
56825;BME280;42705;50.326;18.772;2023-10-08T19:00:42;99411.04;;;8.51;43.45
56825;BME280;42705;50.326;18.772;2023-10-08T19:06:06;99413.11;;;8.46;43.94
56825;BME280;42705;50.326;18.772;2023-10-08T19:11:29;99413.95;;;8.44;44.35
56825;BME280;42705;50.326;18.772;2023-10-08T19:16:55;99415.77;;;8.40;44.80
56825;BME280;42705;50.326;18.772;2023-10-08T19:22:16;99412.09;;;8.35;45.23
56825;BME280;42705;50.326;18.772;2023-10-08T19:27:38;99411.92;;;8.32;45.27
56825;BME280;42705;50.326;18.772;2023-10-08T19:32:59;99416.27;;;8.29;45.79
56825;BME280;42705;50.326;18.772;2023-10-08T19:38:23;99421.87;;;8.26;46.17
56825;BME280;42705;50.326;18.772;2023-10-08T19:43:45;99423.83;;;8.23;46.46
56825;BME280;42705;50.326;18.772;2023-10-08T19:49:07;99433.73;;;8.20;46.93
56825;BME280;42705;50.326;18.772;2023-10-08T19:54:28;99432.70;;;8.16;47.06
56825;BME280;42705;50.326;18.772;2023-10-08T19:59:51;99435.26;;;8.10;47.68
56825;BME280;42705;50.326;18.772;2023-10-08T20:05:13;99434.86;;;8.09;47.97
56825;BME280;42705;50.326;18.772;2023-10-08T20:10:38;99430.55;;;8.08;48.25
56825;BME280;42705;50.326;18.772;2023-10-08T20:16:02;99435.22;;;8.06;48.53
56825;BME280;42705;50.326;18.772;2023-10-08T20:21:28;99437.72;;;8.02;48.60
56825;BME280;42705;50.326;18.772;2023-10-08T20:26:49;99437.88;;;8.00;49.07
56825;BME280;42705;50.326;18.772;2023-10-08T20:32:11;99442.34;;;8.03;49.09
56825;BME280;42705;50.326;18.772;2023-10-08T20:37:35;99430.79;;;8.07;49.08
56825;BME280;42705;50.326;18.772;2023-10-08T20:42:59;99424.64;;;8.08;48.98
56825;BME280;42705;50.326;18.772;2023-10-08T20:48:20;99425.70;;;8.10;48.93
56825;BME280;42705;50.326;18.772;2023-10-08T20:53:43;99432.24;;;8.14;48.99
56825;BME280;42705;50.326;18.772;2023-10-08T20:59:06;99434.84;;;8.14;49.06
56825;BME280;42705;50.326;18.772;2023-10-08T21:04:27;99437.38;;;8.16;49.12
56825;BME280;42705;50.326;18.772;2023-10-08T21:09:49;99435.59;;;8.11;49.31
56825;BME280;42705;50.326;18.772;2023-10-08T21:15:13;99427.10;;;8.10;49.75
56825;BME280;42705;50.326;18.772;2023-10-08T21:20:41;99414.65;;;8.04;49.69
56825;BME280;42705;50.326;18.772;2023-10-08T21:26:04;99419.66;;;7.96;49.81
56825;BME280;42705;50.326;18.772;2023-10-08T21:31:26;99420.00;;;7.93;50.21
56825;BME280;42705;50.326;18.772;2023-10-08T21:36:49;99417.33;;;7.86;50.31
56825;BME280;42705;50.326;18.772;2023-10-08T21:42:11;99413.48;;;7.73;50.48
56825;BME280;42705;50.326;18.772;2023-10-08T21:47:34;99412.11;;;7.56;50.93
56825;BME280;42705;50.326;18.772;2023-10-08T21:52:56;99420.61;;;7.42;51.52
56825;BME280;42705;50.326;18.772;2023-10-08T21:58:18;99416.59;;;7.29;51.79
56825;BME280;42705;50.326;18.772;2023-10-08T22:03:40;99422.48;;;7.20;52.36
56825;BME280;42705;50.326;18.772;2023-10-08T22:09:04;99423.21;;;7.17;52.68
56825;BME280;42705;50.326;18.772;2023-10-08T22:14:32;99414.20;;;7.19;52.93
56825;BME280;42705;50.326;18.772;2023-10-08T22:19:54;99403.75;;;7.22;52.90
56825;BME280;42705;50.326;18.772;2023-10-08T22:25:17;99389.33;;;7.28;53.30
56825;BME280;42705;50.326;18.772;2023-10-08T22:30:41;99391.45;;;7.31;53.71
56825;BME280;42705;50.326;18.772;2023-10-08T22:36:03;99390.39;;;7.31;53.99
56825;BME280;42705;50.326;18.772;2023-10-08T22:41:25;99383.58;;;7.37;54.55
56825;BME280;42705;50.326;18.772;2023-10-08T22:47:05;99385.49;;;7.43;54.75
56825;BME280;42705;50.326;18.772;2023-10-08T22:52:29;99383.36;;;7.40;54.92
56825;BME280;42705;50.326;18.772;2023-10-08T22:57:53;99394.07;;;7.25;55.00
56825;BME280;42705;50.326;18.772;2023-10-08T23:03:15;99387.22;;;6.83;55.27
56825;BME280;42705;50.326;18.772;2023-10-08T23:08:45;99393.66;;;6.56;55.86
56825;BME280;42705;50.326;18.772;2023-10-08T23:14:08;99391.85;;;6.43;56.13
56825;BME280;42705;50.326;18.772;2023-10-08T23:19:30;99404.92;;;6.33;56.52
56825;BME280;42705;50.326;18.772;2023-10-08T23:24:52;99404.39;;;6.30;56.53
56825;BME280;42705;50.326;18.772;2023-10-08T23:30:14;99396.73;;;6.36;56.86
56825;BME280;42705;50.326;18.772;2023-10-08T23:35:35;99391.39;;;6.51;57.23
56825;BME280;42705;50.326;18.772;2023-10-08T23:41:03;99395.07;;;6.62;57.14
56825;BME280;42705;50.326;18.772;2023-10-08T23:46:36;99389.64;;;6.54;56.99
56825;BME280;42705;50.326;18.772;2023-10-08T23:52:05;99374.03;;;6.45;57.25
56825;BME280;42705;50.326;18.772;2023-10-08T23:57:30;99364.02;;;6.47;57.49
